sensor_id;sensor_type;location;lat;lon;timestamp;P1;durP1;ratioP1;P2;durP2;ratioP2
68509;SDS011;55512;50.102;19.958;2022-08-03T00:02:22;17.10;;;13.10;;
68509;SDS011;55512;50.102;19.958;2022-08-03T00:04:48;16.50;;;13.40;;
68509;SDS011;55512;50.102;19.958;2022-08-03T00:07:14;14.90;;;11.60;;
68509;SDS011;55512;50.102;19.958;2022-08-03T00:09:40;16.30;;;11.60;;
68509;SDS011;55512;50.102;19.958;2022-08-03T00:12:06;18.00;;;12.70;;
68509;SDS011;55512;50.102;19.958;2022-08-03T00:14:32;16.60;;;12.00;;
68509;SDS011;55512;50.102;19.958;2022-08-03T00:16:57;17.80;;;13.10;;
68509;SDS011;55512;50.102;19.958;2022-08-03T00:19:23;17.40;;;13.40;;
68509;SDS011;55512;50.102;19.958;2022-08-03T00:21:48;17.80;;;13.50;;
68509;SDS011;55512;50.102;19.958;2022-08-03T00:24:14;17.80;;;13.20;;
68509;SDS011;55512;50.102;19.958;2022-08-03T00:26:39;18.20;;;12.80;;
68509;SDS011;55512;50.102;19.958;2022-08-03T00:29:05;17.50;;;13.00;;
68509;SDS011;55512;50.102;19.958;2022-08-03T00:31:31;18.30;;;13.70;;
68509;SDS011;55512;50.102;19.958;2022-08-03T00:33:56;19.50;;;14.00;;
68509;SDS011;55512;50.102;19.958;2022-08-03T00:36:22;17.40;;;13.40;;
68509;SDS011;55512;50.102;19.958;2022-08-03T00:38:47;19.20;;;13.30;;
68509;SDS011;55512;50.102;19.958;2022-08-03T00:41:13;18.90;;;13.60;;
68509;SDS011;55512;50.102;19.958;2022-08-03T00:43:38;17.80;;;12.80;;
68509;SDS011;55512;50.102;19.958;2022-08-03T00:46:04;16.80;;;12.50;;
68509;SDS011;55512;50.102;19.958;2022-08-03T00:48:29;16.40;;;12.60;;
68509;SDS011;55512;50.102;19.958;2022-08-03T00:50:55;17.10;;;12.10;;
68509;SDS011;55512;50.102;19.958;2022-08-03T00:53:21;17.80;;;12.60;;
68509;SDS011;55512;50.102;19.958;2022-08-03T00:55:47;17.00;;;12.50;;
68509;SDS011;55512;50.102;19.958;2022-08-03T00:58:13;18.10;;;12.60;;
68509;SDS011;55512;50.102;19.958;2022-08-03T01:00:39;17.50;;;12.20;;
68509;SDS011;55512;50.102;19.958;2022-08-03T01:03:06;16.90;;;12.60;;
68509;SDS011;55512;50.102;19.958;2022-08-03T01:05:51;18.20;;;11.80;;
68509;SDS011;55512;50.102;19.958;2022-08-03T01:12:11;16.90;;;11.70;;
68509;SDS011;55512;50.102;19.958;2022-08-03T01:17:45;18.70;;;13.00;;
68509;SDS011;55512;50.102;19.958;2022-08-03T01:20:32;19.90;;;13.10;;
68509;SDS011;55512;50.102;19.958;2022-08-03T01:23:09;18.70;;;13.60;;
68509;SDS011;55512;50.102;19.958;2022-08-03T01:28:43;18.80;;;14.40;;
68509;SDS011;55512;50.102;19.958;2022-08-03T01:31:10;20.60;;;13.70;;
68509;SDS011;55512;50.102;19.958;2022-08-03T01:33:43;18.70;;;13.90;;
68509;SDS011;55512;50.102;19.958;2022-08-03T01:36:22;19.20;;;14.10;;
68509;SDS011;55512;50.102;19.958;2022-08-03T01:38:54;18.80;;;13.30;;
68509;SDS011;55512;50.102;19.958;2022-08-03T01:41:30;17.50;;;13.10;;
68509;SDS011;55512;50.102;19.958;2022-08-03T01:43:58;18.40;;;13.80;;
68509;SDS011;55512;50.102;19.958;2022-08-03T01:46:26;19.00;;;13.80;;
68509;SDS011;55512;50.102;19.958;2022-08-03T01:48:55;20.40;;;13.80;;
68509;SDS011;55512;50.102;19.958;2022-08-03T01:51:24;17.10;;;12.60;;
68509;SDS011;55512;50.102;19.958;2022-08-03T01:53:50;17.60;;;13.00;;
68509;SDS011;55512;50.102;19.958;2022-08-03T01:56:19;19.00;;;13.90;;
68509;SDS011;55512;50.102;19.958;2022-08-03T01:58:48;18.40;;;13.50;;
68509;SDS011;55512;50.102;19.958;2022-08-03T02:01:16;16.70;;;12.90;;
68509;SDS011;55512;50.102;19.958;2022-08-03T02:03:44;18.60;;;13.30;;
68509;SDS011;55512;50.102;19.958;2022-08-03T02:06:12;18.30;;;12.80;;
68509;SDS011;55512;50.102;19.958;2022-08-03T02:08:41;17.70;;;12.70;;
68509;SDS011;55512;50.102;19.958;2022-08-03T02:11:09;18.00;;;12.70;;
68509;SDS011;55512;50.102;19.958;2022-08-03T02:13:36;16.60;;;11.90;;
68509;SDS011;55512;50.102;19.958;2022-08-03T02:16:04;18.80;;;12.70;;
68509;SDS011;55512;50.102;19.958;2022-08-03T02:18:33;17.50;;;12.30;;
68509;SDS011;55512;50.102;19.958;2022-08-03T02:21:01;17.30;;;12.10;;
68509;SDS011;55512;50.102;19.958;2022-08-03T02:23:28;17.60;;;11.80;;
68509;SDS011;55512;50.102;19.958;2022-08-03T02:26:01;17.40;;;11.90;;
68509;SDS011;55512;50.102;19.958;2022-08-03T02:28:33;16.80;;;12.30;;
68509;SDS011;55512;50.102;19.958;2022-08-03T02:31:04;15.60;;;11.90;;
68509;SDS011;55512;50.102;19.958;2022-08-03T02:33:37;17.20;;;12.20;;
68509;SDS011;55512;50.102;19.958;2022-08-03T02:36:06;16.70;;;11.80;;
68509;SDS011;55512;50.102;19.958;2022-08-03T02:38:36;17.80;;;12.30;;
68509;SDS011;55512;50.102;19.958;2022-08-03T02:41:08;18.30;;;13.00;;
68509;SDS011;55512;50.102;19.958;2022-08-03T02:43:39;16.20;;;11.90;;
68509;SDS011;55512;50.102;19.958;2022-08-03T02:46:08;15.90;;;12.20;;
68509;SDS011;55512;50.102;19.958;2022-08-03T02:48:40;16.80;;;11.60;;
68509;SDS011;55512;50.102;19.958;2022-08-03T02:51:06;18.30;;;12.80;;
68509;SDS011;55512;50.102;19.958;2022-08-03T02:53:33;18.70;;;12.60;;
68509;SDS011;55512;50.102;19.958;2022-08-03T02:56:01;17.20;;;12.30;;
68509;SDS011;55512;50.102;19.958;2022-08-03T02:58:30;17.80;;;12.70;;
68509;SDS011;55512;50.102;19.958;2022-08-03T03:00:56;16.40;;;12.20;;
68509;SDS011;55512;50.102;19.958;2022-08-03T03:03:23;18.70;;;13.70;;
68509;SDS011;55512;50.102;19.958;2022-08-03T03:05:51;17.50;;;12.70;;
68509;SDS011;55512;50.102;19.958;2022-08-03T03:08:19;16.90;;;12.60;;
68509;SDS011;55512;50.102;19.958;2022-08-03T03:10:46;15.10;;;11.90;;
68509;SDS011;55512;50.102;19.958;2022-08-03T03:13:14;16.90;;;11.70;;
68509;SDS011;55512;50.102;19.958;2022-08-03T03:15:42;17.20;;;11.90;;
68509;SDS011;55512;50.102;19.958;2022-08-03T03:18:10;16.00;;;11.60;;
68509;SDS011;55512;50.102;19.958;2022-08-03T03:20:38;15.70;;;11.70;;
68509;SDS011;55512;50.102;19.958;2022-08-03T03:23:05;17.30;;;11.80;;
68509;SDS011;55512;50.102;19.958;2022-08-03T03:25:33;18.20;;;13.10;;
68509;SDS011;55512;50.102;19.958;2022-08-03T03:28:00;18.20;;;13.30;;
68509;SDS011;55512;50.102;19.958;2022-08-03T03:30:27;20.70;;;12.60;;
68509;SDS011;55512;50.102;19.958;2022-08-03T03:32:54;19.70;;;13.00;;
68509;SDS011;55512;50.102;19.958;2022-08-03T03:35:21;18.50;;;13.10;;
68509;SDS011;55512;50.102;19.958;2022-08-03T03:37:46;17.00;;;12.50;;
68509;SDS011;55512;50.102;19.958;2022-08-03T03:40:13;17.90;;;13.20;;
68509;SDS011;55512;50.102;19.958;2022-08-03T03:42:39;20.90;;;14.90;;
68509;SDS011;55512;50.102;19.958;2022-08-03T03:45:06;19.90;;;14.30;;
68509;SDS011;55512;50.102;19.958;2022-08-03T03:47:33;18.70;;;13.40;;
68509;SDS011;55512;50.102;19.958;2022-08-03T03:50:01;18.50;;;13.10;;
68509;SDS011;55512;50.102;19.958;2022-08-03T03:52:28;19.60;;;14.40;;
68509;SDS011;55512;50.102;19.958;2022-08-03T03:54:54;19.50;;;13.70;;
68509;SDS011;55512;50.102;19.958;2022-08-03T03:57:19;17.40;;;13.00;;
68509;SDS011;55512;50.102;19.958;2022-08-03T03:59:45;15.70;;;12.00;;
68509;SDS011;55512;50.102;19.958;2022-08-03T04:02:11;19.20;;;12.80;;
68509;SDS011;55512;50.102;19.958;2022-08-03T04:04:37;16.30;;;12.00;;
68509;SDS011;55512;50.102;19.958;2022-08-03T04:07:24;16.60;;;11.90;;
68509;SDS011;55512;50.102;19.958;2022-08-03T04:10:15;17.60;;;12.70;;
68509;SDS011;55512;50.102;19.958;2022-08-03T04:13:07;18.20;;;12.50;;
68509;SDS011;55512;50.102;19.958;2022-08-03T04:15:36;19.40;;;13.70;;
68509;SDS011;55512;50.102;19.958;2022-08-03T04:18:06;18.40;;;13.00;;
68509;SDS011;55512;50.102;19.958;2022-08-03T04:20:37;22.70;;;14.50;;
68509;SDS011;55512;50.102;19.958;2022-08-03T04:23:05;17.80;;;13.00;;
68509;SDS011;55512;50.102;19.958;2022-08-03T04:25:34;21.60;;;13.30;;
68509;SDS011;55512;50.102;19.958;2022-08-03T04:28:03;17.90;;;13.60;;
68509;SDS011;55512;50.102;19.958;2022-08-03T04:30:31;19.60;;;13.40;;
68509;SDS011;55512;50.102;19.958;2022-08-03T04:33:00;17.00;;;12.60;;
68509;SDS011;55512;50.102;19.958;2022-08-03T04:35:30;19.50;;;12.90;;
68509;SDS011;55512;50.102;19.958;2022-08-03T04:38:01;16.70;;;12.80;;
68509;SDS011;55512;50.102;19.958;2022-08-03T04:40:37;17.10;;;13.30;;
68509;SDS011;55512;50.102;19.958;2022-08-03T04:43:07;18.20;;;13.30;;
68509;SDS011;55512;50.102;19.958;2022-08-03T04:45:34;21.20;;;13.50;;
68509;SDS011;55512;50.102;19.958;2022-08-03T04:48:01;18.10;;;13.70;;
68509;SDS011;55512;50.102;19.958;2022-08-03T04:50:29;18.80;;;14.00;;
68509;SDS011;55512;50.102;19.958;2022-08-03T04:52:54;22.00;;;14.90;;
68509;SDS011;55512;50.102;19.958;2022-08-03T04:55:31;19.20;;;14.00;;
68509;SDS011;55512;50.102;19.958;2022-08-03T04:57:59;18.90;;;13.80;;
68509;SDS011;55512;50.102;19.958;2022-08-03T05:00:25;19.20;;;14.30;;
68509;SDS011;55512;50.102;19.958;2022-08-03T05:02:52;18.80;;;14.00;;
68509;SDS011;55512;50.102;19.958;2022-08-03T05:05:18;19.60;;;13.80;;
68509;SDS011;55512;50.102;19.958;2022-08-03T05:07:44;19.60;;;13.50;;
68509;SDS011;55512;50.102;19.958;2022-08-03T05:10:11;19.10;;;14.40;;
68509;SDS011;55512;50.102;19.958;2022-08-03T05:12:38;21.10;;;15.30;;
68509;SDS011;55512;50.102;19.958;2022-08-03T05:15:04;25.30;;;16.80;;
68509;SDS011;55512;50.102;19.958;2022-08-03T05:17:30;20.40;;;15.20;;
68509;SDS011;55512;50.102;19.958;2022-08-03T05:19:58;19.90;;;14.60;;
68509;SDS011;55512;50.102;19.958;2022-08-03T05:22:25;19.80;;;14.60;;
68509;SDS011;55512;50.102;19.958;2022-08-03T05:24:51;21.00;;;14.90;;
68509;SDS011;55512;50.102;19.958;2022-08-03T05:27:17;20.70;;;15.70;;
68509;SDS011;55512;50.102;19.958;2022-08-03T05:29:46;23.50;;;15.20;;
68509;SDS011;55512;50.102;19.958;2022-08-03T05:32:13;19.60;;;14.60;;
68509;SDS011;55512;50.102;19.958;2022-08-03T05:34:39;20.80;;;14.90;;
68509;SDS011;55512;50.102;19.958;2022-08-03T05:37:05;20.20;;;15.00;;
68509;SDS011;55512;50.102;19.958;2022-08-03T05:39:32;19.20;;;14.40;;
68509;SDS011;55512;50.102;19.958;2022-08-03T05:41:58;20.20;;;15.10;;
68509;SDS011;55512;50.102;19.958;2022-08-03T05:44:24;21.90;;;15.20;;
68509;SDS011;55512;50.102;19.958;2022-08-03T05:46:50;20.70;;;15.40;;
68509;SDS011;55512;50.102;19.958;2022-08-03T05:49:16;21.50;;;15.20;;
68509;SDS011;55512;50.102;19.958;2022-08-03T05:51:43;21.20;;;15.70;;
68509;SDS011;55512;50.102;19.958;2022-08-03T05:54:08;19.90;;;14.70;;
68509;SDS011;55512;50.102;19.958;2022-08-03T05:56:34;20.50;;;15.40;;
68509;SDS011;55512;50.102;19.958;2022-08-03T05:59:00;21.30;;;14.90;;
68509;SDS011;55512;50.102;19.958;2022-08-03T06:01:25;21.30;;;16.00;;
68509;SDS011;55512;50.102;19.958;2022-08-03T06:03:51;20.90;;;15.50;;
68509;SDS011;55512;50.102;19.958;2022-08-03T06:06:17;18.90;;;14.60;;
68509;SDS011;55512;50.102;19.958;2022-08-03T06:08:44;19.80;;;15.60;;
68509;SDS011;55512;50.102;19.958;2022-08-03T06:11:11;19.30;;;15.20;;
68509;SDS011;55512;50.102;19.958;2022-08-03T06:13:37;21.90;;;16.80;;
68509;SDS011;55512;50.102;19.958;2022-08-03T06:16:04;21.60;;;16.60;;
68509;SDS011;55512;50.102;19.958;2022-08-03T06:18:30;21.60;;;16.00;;
68509;SDS011;55512;50.102;19.958;2022-08-03T06:20:55;21.50;;;17.00;;
68509;SDS011;55512;50.102;19.958;2022-08-03T06:23:21;19.30;;;15.00;;
68509;SDS011;55512;50.102;19.958;2022-08-03T06:25:47;20.60;;;15.60;;
68509;SDS011;55512;50.102;19.958;2022-08-03T06:28:13;21.60;;;16.40;;
68509;SDS011;55512;50.102;19.958;2022-08-03T06:30:40;24.40;;;17.00;;
68509;SDS011;55512;50.102;19.958;2022-08-03T06:33:06;19.00;;;14.80;;
68509;SDS011;55512;50.102;19.958;2022-08-03T06:35:32;19.70;;;15.40;;
68509;SDS011;55512;50.102;19.958;2022-08-03T06:37:58;18.60;;;14.70;;
68509;SDS011;55512;50.102;19.958;2022-08-03T06:40:24;18.20;;;14.80;;
68509;SDS011;55512;50.102;19.958;2022-08-03T06:42:57;19.10;;;15.20;;
68509;SDS011;55512;50.102;19.958;2022-08-03T06:45:24;19.10;;;14.50;;
68509;SDS011;55512;50.102;19.958;2022-08-03T06:48:03;18.40;;;14.00;;
68509;SDS011;55512;50.102;19.958;2022-08-03T06:50:30;18.90;;;15.50;;
68509;SDS011;55512;50.102;19.958;2022-08-03T06:52:57;19.90;;;14.10;;
68509;SDS011;55512;50.102;19.958;2022-08-03T06:55:23;19.10;;;13.50;;
68509;SDS011;55512;50.102;19.958;2022-08-03T06:57:48;20.30;;;15.50;;
68509;SDS011;55512;50.102;19.958;2022-08-03T07:00:14;18.80;;;15.00;;
68509;SDS011;55512;50.102;19.958;2022-08-03T07:02:45;16.60;;;13.80;;
68509;SDS011;55512;50.102;19.958;2022-08-03T07:05:11;20.20;;;15.10;;
68509;SDS011;55512;50.102;19.958;2022-08-03T07:07:37;16.80;;;13.30;;
68509;SDS011;55512;50.102;19.958;2022-08-03T07:10:04;18.40;;;12.80;;
68509;SDS011;55512;50.102;19.958;2022-08-03T07:12:32;17.20;;;13.30;;
68509;SDS011;55512;50.102;19.958;2022-08-03T07:15:00;18.70;;;13.60;;
68509;SDS011;55512;50.102;19.958;2022-08-03T07:17:27;15.20;;;12.50;;
68509;SDS011;55512;50.102;19.958;2022-08-03T07:19:53;16.80;;;13.50;;
68509;SDS011;55512;50.102;19.958;2022-08-03T07:22:19;17.00;;;12.60;;
68509;SDS011;55512;50.102;19.958;2022-08-03T07:24:45;16.90;;;12.10;;
68509;SDS011;55512;50.102;19.958;2022-08-03T07:27:12;19.40;;;13.70;;
68509;SDS011;55512;50.102;19.958;2022-08-03T07:29:37;16.70;;;12.10;;
68509;SDS011;55512;50.102;19.958;2022-08-03T07:32:04;17.30;;;13.10;;
68509;SDS011;55512;50.102;19.958;2022-08-03T07:34:30;14.80;;;11.90;;
68509;SDS011;55512;50.102;19.958;2022-08-03T07:36:56;15.70;;;11.30;;
68509;SDS011;55512;50.102;19.958;2022-08-03T07:39:22;14.10;;;11.30;;
68509;SDS011;55512;50.102;19.958;2022-08-03T07:41:48;15.80;;;10.80;;
68509;SDS011;55512;50.102;19.958;2022-08-03T07:44:18;14.70;;;10.30;;
68509;SDS011;55512;50.102;19.958;2022-08-03T07:46:44;13.40;;;10.60;;
68509;SDS011;55512;50.102;19.958;2022-08-03T07:49:09;13.00;;;10.00;;
68509;SDS011;55512;50.102;19.958;2022-08-03T07:51:35;12.80;;;10.00;;
68509;SDS011;55512;50.102;19.958;2022-08-03T07:54:01;12.30;;;10.60;;
68509;SDS011;55512;50.102;19.958;2022-08-03T07:56:27;14.20;;;12.10;;
68509;SDS011;55512;50.102;19.958;2022-08-03T07:58:53;15.00;;;11.60;;
68509;SDS011;55512;50.102;19.958;2022-08-03T08:01:19;13.10;;;11.00;;
68509;SDS011;55512;50.102;19.958;2022-08-03T08:03:46;12.20;;;10.70;;
68509;SDS011;55512;50.102;19.958;2022-08-03T08:06:12;13.70;;;10.90;;
68509;SDS011;55512;50.102;19.958;2022-08-03T08:08:39;13.90;;;9.40;;
68509;SDS011;55512;50.102;19.958;2022-08-03T08:11:05;16.90;;;10.10;;
68509;SDS011;55512;50.102;19.958;2022-08-03T08:13:31;11.80;;;9.70;;
68509;SDS011;55512;50.102;19.958;2022-08-03T08:15:57;11.90;;;10.00;;
68509;SDS011;55512;50.102;19.958;2022-08-03T08:18:23;15.90;;;11.40;;
68509;SDS011;55512;50.102;19.958;2022-08-03T08:20:49;14.80;;;10.30;;
68509;SDS011;55512;50.102;19.958;2022-08-03T08:23:15;18.10;;;10.70;;
68509;SDS011;55512;50.102;19.958;2022-08-03T08:25:47;11.20;;;9.60;;
68509;SDS011;55512;50.102;19.958;2022-08-03T08:28:21;11.40;;;9.70;;
68509;SDS011;55512;50.102;19.958;2022-08-03T08:30:47;10.90;;;9.10;;
68509;SDS011;55512;50.102;19.958;2022-08-03T08:33:13;10.40;;;8.80;;
68509;SDS011;55512;50.102;19.958;2022-08-03T08:35:38;11.20;;;9.70;;
68509;SDS011;55512;50.102;19.958;2022-08-03T08:38:04;12.00;;;9.40;;
68509;SDS011;55512;50.102;19.958;2022-08-03T08:40:29;11.10;;;10.00;;
68509;SDS011;55512;50.102;19.958;2022-08-03T08:42:55;11.10;;;9.90;;
68509;SDS011;55512;50.102;19.958;2022-08-03T08:45:20;12.90;;;9.90;;
68509;SDS011;55512;50.102;19.958;2022-08-03T08:47:47;13.20;;;10.20;;
68509;SDS011;55512;50.102;19.958;2022-08-03T08:50:19;12.70;;;10.70;;
68509;SDS011;55512;50.102;19.958;2022-08-03T08:52:47;13.20;;;10.60;;
68509;SDS011;55512;50.102;19.958;2022-08-03T08:55:19;13.00;;;10.10;;
68509;SDS011;55512;50.102;19.958;2022-08-03T08:57:49;10.80;;;9.50;;
68509;SDS011;55512;50.102;19.958;2022-08-03T09:00:19;12.40;;;8.80;;
68509;SDS011;55512;50.102;19.958;2022-08-03T09:02:45;19.30;;;10.00;;
68509;SDS011;55512;50.102;19.958;2022-08-03T09:05:13;12.30;;;9.50;;
68509;SDS011;55512;50.102;19.958;2022-08-03T09:07:41;11.70;;;9.10;;
68509;SDS011;55512;50.102;19.958;2022-08-03T09:10:09;12.10;;;8.90;;
68509;SDS011;55512;50.102;19.958;2022-08-03T09:12:45;11.60;;;9.20;;
68509;SDS011;55512;50.102;19.958;2022-08-03T09:17:54;13.90;;;9.30;;
68509;SDS011;55512;50.102;19.958;2022-08-03T09:20:23;14.90;;;9.60;;
68509;SDS011;55512;50.102;19.958;2022-08-03T09:22:51;16.40;;;9.10;;
68509;SDS011;55512;50.102;19.958;2022-08-03T09:30:35;12.00;;;10.40;;
68509;SDS011;55512;50.102;19.958;2022-08-03T09:33:04;10.50;;;9.20;;
68509;SDS011;55512;50.102;19.958;2022-08-03T09:35:45;11.50;;;9.50;;
68509;SDS011;55512;50.102;19.958;2022-08-03T09:38:13;12.70;;;9.70;;
68509;SDS011;55512;50.102;19.958;2022-08-03T09:40:44;12.10;;;9.30;;
68509;SDS011;55512;50.102;19.958;2022-08-03T09:43:11;11.90;;;9.70;;
68509;SDS011;55512;50.102;19.958;2022-08-03T09:45:37;12.00;;;9.60;;
68509;SDS011;55512;50.102;19.958;2022-08-03T09:48:30;10.50;;;9.40;;
68509;SDS011;55512;50.102;19.958;2022-08-03T09:51:00;10.70;;;8.80;;
68509;SDS011;55512;50.102;19.958;2022-08-03T09:53:27;10.90;;;8.60;;
68509;SDS011;55512;50.102;19.958;2022-08-03T09:55:58;12.20;;;9.00;;
68509;SDS011;55512;50.102;19.958;2022-08-03T09:58:29;11.30;;;8.60;;
68509;SDS011;55512;50.102;19.958;2022-08-03T10:01:00;11.00;;;8.80;;
68509;SDS011;55512;50.102;19.958;2022-08-03T10:03:32;14.50;;;9.40;;
68509;SDS011;55512;50.102;19.958;2022-08-03T10:06:19;10.80;;;9.00;;
68509;SDS011;55512;50.102;19.958;2022-08-03T10:09:03;11.40;;;8.30;;
68509;SDS011;55512;50.102;19.958;2022-08-03T10:11:41;16.60;;;8.60;;
68509;SDS011;55512;50.102;19.958;2022-08-03T10:14:10;8.90;;;7.90;;
68509;SDS011;55512;50.102;19.958;2022-08-03T10:16:44;9.90;;;8.20;;
68509;SDS011;55512;50.102;19.958;2022-08-03T10:19:10;11.30;;;8.50;;
68509;SDS011;55512;50.102;19.958;2022-08-03T10:21:40;11.40;;;8.00;;
68509;SDS011;55512;50.102;19.958;2022-08-03T10:24:08;9.40;;;7.40;;
68509;SDS011;55512;50.102;19.958;2022-08-03T10:26:38;10.70;;;7.70;;
68509;SDS011;55512;50.102;19.958;2022-08-03T10:29:11;10.10;;;7.70;;
68509;SDS011;55512;50.102;19.958;2022-08-03T10:31:41;8.60;;;7.30;;
68509;SDS011;55512;50.102;19.958;2022-08-03T10:34:22;9.20;;;7.10;;
68509;SDS011;55512;50.102;19.958;2022-08-03T10:36:52;9.80;;;6.70;;
68509;SDS011;55512;50.102;19.958;2022-08-03T10:39:23;9.80;;;7.60;;
68509;SDS011;55512;50.102;19.958;2022-08-03T10:41:52;8.60;;;7.30;;
68509;SDS011;55512;50.102;19.958;2022-08-03T10:44:23;9.60;;;7.60;;
68509;SDS011;55512;50.102;19.958;2022-08-03T10:46:50;8.30;;;7.30;;
68509;SDS011;55512;50.102;19.958;2022-08-03T10:49:18;9.20;;;7.70;;
68509;SDS011;55512;50.102;19.958;2022-08-03T10:51:46;10.20;;;7.90;;
68509;SDS011;55512;50.102;19.958;2022-08-03T10:54:41;9.90;;;7.20;;
68509;SDS011;55512;50.102;19.958;2022-08-03T10:57:48;10.00;;;6.90;;
68509;SDS011;55512;50.102;19.958;2022-08-03T11:00:17;9.20;;;6.70;;
68509;SDS011;55512;50.102;19.958;2022-08-03T11:03:25;9.20;;;7.40;;
68509;SDS011;55512;50.102;19.958;2022-08-03T11:05:51;9.40;;;7.60;;
68509;SDS011;55512;50.102;19.958;2022-08-03T11:08:32;10.00;;;7.20;;
68509;SDS011;55512;50.102;19.958;2022-08-03T11:14:05;10.50;;;7.80;;
68509;SDS011;55512;50.102;19.958;2022-08-03T11:16:41;15.60;;;8.30;;
68509;SDS011;55512;50.102;19.958;2022-08-03T11:19:12;36.60;;;9.90;;
68509;SDS011;55512;50.102;19.958;2022-08-03T11:27:19;12.30;;;7.10;;
68509;SDS011;55512;50.102;19.958;2022-08-03T11:35:12;18.50;;;7.70;;
68509;SDS011;55512;50.102;19.958;2022-08-03T11:46:07;9.30;;;6.50;;
68509;SDS011;55512;50.102;19.958;2022-08-03T11:48:47;10.50;;;6.60;;
68509;SDS011;55512;50.102;19.958;2022-08-03T11:51:25;9.70;;;6.30;;
68509;SDS011;55512;50.102;19.958;2022-08-03T11:54:00;15.60;;;5.90;;
68509;SDS011;55512;50.102;19.958;2022-08-03T11:56:27;34.50;;;9.40;;
68509;SDS011;55512;50.102;19.958;2022-08-03T11:58:55;14.20;;;6.80;;
68509;SDS011;55512;50.102;19.958;2022-08-03T12:01:23;12.20;;;6.30;;
68509;SDS011;55512;50.102;19.958;2022-08-03T12:03:50;9.50;;;6.30;;
68509;SDS011;55512;50.102;19.958;2022-08-03T12:06:17;7.50;;;5.20;;
68509;SDS011;55512;50.102;19.958;2022-08-03T12:08:44;7.00;;;5.20;;
68509;SDS011;55512;50.102;19.958;2022-08-03T12:11:13;8.40;;;6.00;;
68509;SDS011;55512;50.102;19.958;2022-08-03T12:16:10;8.30;;;6.00;;
68509;SDS011;55512;50.102;19.958;2022-08-03T12:18:43;8.10;;;5.70;;
68509;SDS011;55512;50.102;19.958;2022-08-03T12:21:09;9.30;;;6.20;;
68509;SDS011;55512;50.102;19.958;2022-08-03T12:23:37;8.60;;;5.60;;
68509;SDS011;55512;50.102;19.958;2022-08-03T12:26:08;7.40;;;5.90;;
68509;SDS011;55512;50.102;19.958;2022-08-03T12:28:35;9.90;;;6.50;;
68509;SDS011;55512;50.102;19.958;2022-08-03T12:31:03;14.80;;;7.30;;
68509;SDS011;55512;50.102;19.958;2022-08-03T12:33:57;13.60;;;6.80;;
68509;SDS011;55512;50.102;19.958;2022-08-03T12:36:26;10.70;;;6.30;;
68509;SDS011;55512;50.102;19.958;2022-08-03T12:39:04;8.40;;;6.50;;
68509;SDS011;55512;50.102;19.958;2022-08-03T12:41:39;9.80;;;6.50;;
68509;SDS011;55512;50.102;19.958;2022-08-03T12:44:06;8.40;;;6.20;;
68509;SDS011;55512;50.102;19.958;2022-08-03T12:46:38;21.50;;;8.50;;
68509;SDS011;55512;50.102;19.958;2022-08-03T12:49:09;11.30;;;6.30;;
68509;SDS011;55512;50.102;19.958;2022-08-03T12:54:09;9.10;;;7.20;;
68509;SDS011;55512;50.102;19.958;2022-08-03T12:57:15;8.20;;;6.50;;
68509;SDS011;55512;50.102;19.958;2022-08-03T12:59:43;9.40;;;7.00;;
68509;SDS011;55512;50.102;19.958;2022-08-03T13:02:25;9.70;;;6.90;;
68509;SDS011;55512;50.102;19.958;2022-08-03T13:04:53;10.60;;;7.10;;
68509;SDS011;55512;50.102;19.958;2022-08-03T13:07:20;48.90;;;12.10;;
68509;SDS011;55512;50.102;19.958;2022-08-03T13:12:19;9.80;;;7.10;;
68509;SDS011;55512;50.102;19.958;2022-08-03T13:14:48;8.40;;;6.70;;
68509;SDS011;55512;50.102;19.958;2022-08-03T13:17:16;9.50;;;6.90;;
68509;SDS011;55512;50.102;19.958;2022-08-03T13:19:41;13.60;;;8.00;;
68509;SDS011;55512;50.102;19.958;2022-08-03T13:22:22;13.00;;;7.20;;
68509;SDS011;55512;50.102;19.958;2022-08-03T13:24:51;13.00;;;7.50;;
68509;SDS011;55512;50.102;19.958;2022-08-03T13:27:20;11.20;;;7.50;;
68509;SDS011;55512;50.102;19.958;2022-08-03T13:29:45;15.00;;;7.60;;
68509;SDS011;55512;50.102;19.958;2022-08-03T13:32:11;9.90;;;6.80;;
68509;SDS011;55512;50.102;19.958;2022-08-03T13:34:37;9.70;;;7.10;;
68509;SDS011;55512;50.102;19.958;2022-08-03T13:37:03;10.70;;;7.30;;
68509;SDS011;55512;50.102;19.958;2022-08-03T13:39:29;10.50;;;6.90;;
68509;SDS011;55512;50.102;19.958;2022-08-03T13:41:55;11.20;;;7.40;;
68509;SDS011;55512;50.102;19.958;2022-08-03T13:44:21;9.80;;;6.70;;
68509;SDS011;55512;50.102;19.958;2022-08-03T13:46:47;9.00;;;6.80;;
68509;SDS011;55512;50.102;19.958;2022-08-03T13:49:13;8.30;;;6.80;;
68509;SDS011;55512;50.102;19.958;2022-08-03T13:51:39;9.80;;;6.60;;
68509;SDS011;55512;50.102;19.958;2022-08-03T13:54:05;7.20;;;6.40;;
68509;SDS011;55512;50.102;19.958;2022-08-03T13:56:32;9.90;;;6.30;;
68509;SDS011;55512;50.102;19.958;2022-08-03T13:58:57;7.90;;;6.40;;
68509;SDS011;55512;50.102;19.958;2022-08-03T14:01:24;8.90;;;7.00;;
68509;SDS011;55512;50.102;19.958;2022-08-03T14:03:50;9.50;;;6.20;;
68509;SDS011;55512;50.102;19.958;2022-08-03T14:06:21;16.20;;;7.50;;
68509;SDS011;55512;50.102;19.958;2022-08-03T14:08:47;10.20;;;6.40;;
68509;SDS011;55512;50.102;19.958;2022-08-03T14:11:14;13.40;;;7.20;;
68509;SDS011;55512;50.102;19.958;2022-08-03T14:13:40;14.30;;;6.70;;
68509;SDS011;55512;50.102;19.958;2022-08-03T14:16:06;15.50;;;7.10;;
68509;SDS011;55512;50.102;19.958;2022-08-03T14:18:32;10.40;;;5.80;;
68509;SDS011;55512;50.102;19.958;2022-08-03T14:20:58;9.90;;;6.50;;
68509;SDS011;55512;50.102;19.958;2022-08-03T14:23:24;9.40;;;6.20;;
68509;SDS011;55512;50.102;19.958;2022-08-03T14:25:50;8.10;;;6.10;;
68509;SDS011;55512;50.102;19.958;2022-08-03T14:28:19;11.20;;;7.00;;
68509;SDS011;55512;50.102;19.958;2022-08-03T14:30:50;7.90;;;6.00;;
68509;SDS011;55512;50.102;19.958;2022-08-03T14:33:16;6.90;;;5.60;;
68509;SDS011;55512;50.102;19.958;2022-08-03T14:35:42;9.60;;;6.50;;
68509;SDS011;55512;50.102;19.958;2022-08-03T14:38:07;8.90;;;6.10;;
68509;SDS011;55512;50.102;19.958;2022-08-03T14:40:33;11.00;;;9.10;;
68509;SDS011;55512;50.102;19.958;2022-08-03T14:42:59;8.40;;;7.20;;
68509;SDS011;55512;50.102;19.958;2022-08-03T14:45:24;9.10;;;6.30;;
68509;SDS011;55512;50.102;19.958;2022-08-03T14:47:49;7.60;;;6.30;;
68509;SDS011;55512;50.102;19.958;2022-08-03T14:50:15;8.30;;;6.10;;
68509;SDS011;55512;50.102;19.958;2022-08-03T14:52:41;7.10;;;5.60;;
68509;SDS011;55512;50.102;19.958;2022-08-03T14:55:07;12.50;;;6.80;;
68509;SDS011;55512;50.102;19.958;2022-08-03T14:57:32;10.60;;;6.70;;
68509;SDS011;55512;50.102;19.958;2022-08-03T14:59:58;8.80;;;6.60;;
68509;SDS011;55512;50.102;19.958;2022-08-03T15:02:25;11.90;;;7.40;;
68509;SDS011;55512;50.102;19.958;2022-08-03T15:04:51;13.70;;;7.10;;
68509;SDS011;55512;50.102;19.958;2022-08-03T15:07:17;21.30;;;8.10;;
68509;SDS011;55512;50.102;19.958;2022-08-03T15:09:44;13.60;;;6.40;;
68509;SDS011;55512;50.102;19.958;2022-08-03T15:12:09;14.70;;;6.80;;
68509;SDS011;55512;50.102;19.958;2022-08-03T15:14:35;12.30;;;6.50;;